createdAt,value
2022-09-22T00:02:14.604Z,3.53
2022-09-22T00:07:19.092Z,3.48
2022-09-22T00:12:23.065Z,3.44
2022-09-22T00:17:27.840Z,3.43
2022-09-22T00:22:31.470Z,3.42
2022-09-22T00:27:35.368Z,3.39
2022-09-22T00:32:40.937Z,3.33
2022-09-22T00:37:44.468Z,3.29
2022-09-22T00:42:47.929Z,3.29
2022-09-22T00:47:53.313Z,3.32
2022-09-22T00:53:02.193Z,3.21
2022-09-22T00:58:10.378Z,3.16
2022-09-22T01:03:19.419Z,3.18
2022-09-22T01:08:24.938Z,3.10
2022-09-22T01:13:37.672Z,3.08
2022-09-22T01:18:53.931Z,3.03
2022-09-22T01:24:44.784Z,3.01
2022-09-22T01:30:19.877Z,2.98
2022-09-22T01:35:31.493Z,2.95
2022-09-22T01:40:43.236Z,2.90
2022-09-22T01:45:49.573Z,2.93
2022-09-22T01:50:57.966Z,2.88
2022-09-22T01:56:06.518Z,2.77
2022-09-22T02:01:15.171Z,2.82
2022-09-22T02:06:23.478Z,2.77
2022-09-22T02:11:27.094Z,2.76
2022-09-22T02:16:33.092Z,2.72
2022-09-22T02:21:37.124Z,2.75
2022-09-22T02:26:40.607Z,2.66
2022-09-22T02:31:46.258Z,2.64
2022-09-22T02:37:02.208Z,2.64
2022-09-22T02:42:23.059Z,2.47
2022-09-22T02:47:33.646Z,2.55
2022-09-22T02:52:37.928Z,2.50
2022-09-22T02:57:41.694Z,2.51
2022-09-22T03:02:46.604Z,2.49
2022-09-22T03:07:50.336Z,2.48
2022-09-22T03:13:15.056Z,2.50
2022-09-22T03:18:18.943Z,2.42
2022-09-22T03:23:22.479Z,2.39
2022-09-22T03:28:26.101Z,2.37
2022-09-22T03:33:31.239Z,2.37
2022-09-22T03:38:34.895Z,2.32
2022-09-22T03:43:38.372Z,2.25
2022-09-22T03:48:45.355Z,2.30
2022-09-22T03:53:49.237Z,2.31
2022-09-22T03:58:52.755Z,2.23
2022-09-22T04:03:57.584Z,2.20
2022-09-22T04:09:01.722Z,2.20
2022-09-22T04:14:05.587Z,2.19
2022-09-22T04:19:11.376Z,2.15
2022-09-22T04:24:15.503Z,2.15
2022-09-22T04:29:19.658Z,2.14
2022-09-22T04:34:25.991Z,2.09
2022-09-22T04:39:30.121Z,2.16
2022-09-22T04:44:35.431Z,2.12
2022-09-22T04:49:40.662Z,2.12
2022-09-22T04:54:44.177Z,2.12
2022-09-22T04:59:47.602Z,2.09
2022-09-22T05:04:52.555Z,2.08
2022-09-22T05:09:56.312Z,2.04
2022-09-22T05:15:00.503Z,2.13
2022-09-22T05:20:06.104Z,2.07
2022-09-22T05:25:12.082Z,2.09
2022-09-22T05:30:16.637Z,2.12
2022-09-22T05:35:23.546Z,2.20
2022-09-22T05:40:27.187Z,2.27
2022-09-22T05:45:30.889Z,2.33
2022-09-22T05:50:35.828Z,2.40
2022-09-22T05:55:41.023Z,2.46
2022-09-22T06:00:44.932Z,2.58
2022-09-22T06:05:49.890Z,2.65
2022-09-22T06:10:53.507Z,2.81
2022-09-22T06:15:57.057Z,2.89
2022-09-22T06:21:03.587Z,3.08
2022-09-22T06:26:07.657Z,3.24
2022-09-22T06:31:12.125Z,3.44
2022-09-22T06:36:24.080Z,3.71
2022-09-22T06:41:27.876Z,4.53
2022-09-22T06:46:39.044Z,5.06
2022-09-22T06:51:43.875Z,5.61
2022-09-22T06:56:47.464Z,7.21
2022-09-22T07:01:51.189Z,7.86
2022-09-22T07:06:56.199Z,8.67
2022-09-22T07:12:00.493Z,9.00
2022-09-22T07:17:04.031Z,9.39
2022-09-22T07:22:09.243Z,9.01
2022-09-22T07:27:14.722Z,9.05
2022-09-22T07:32:18.497Z,9.13
2022-09-22T07:37:24.291Z,9.20
2022-09-22T07:42:27.785Z,9.64
2022-09-22T07:47:48.015Z,10.10
2022-09-22T07:52:53.757Z,10.74
2022-09-22T07:57:58.918Z,11.04
2022-09-22T08:03:04.278Z,11.41
2022-09-22T08:08:09.650Z,11.77
2022-09-22T08:13:13.777Z,12.01
2022-09-22T08:18:17.243Z,12.55
2022-09-22T08:23:22.874Z,12.83
2022-09-22T08:28:26.311Z,13.06
2022-09-22T08:33:32.338Z,13.62
2022-09-22T08:38:38.943Z,13.68
2022-09-22T08:43:55.396Z,13.83
2022-09-22T08:49:22.756Z,13.96
2022-09-22T08:54:31.625Z,14.47
2022-09-22T08:59:44.813Z,14.30
2022-09-22T09:05:09.212Z,14.21
2022-09-22T09:10:29.044Z,14.76
2022-09-22T09:15:47.288Z,15.12
2022-09-22T09:20:53.198Z,14.84
2022-09-22T09:26:00.436Z,15.50
2022-09-22T09:31:10.682Z,15.16
2022-09-22T09:36:18.561Z,16.67
2022-09-22T09:41:26.100Z,16.53
2022-09-22T09:46:47.477Z,15.56
2022-09-22T09:51:53.928Z,15.75
2022-09-22T09:57:09.968Z,16.27
2022-09-22T10:02:15.591Z,15.64
2022-09-22T10:07:21.519Z,16.12
2022-09-22T10:12:29.400Z,15.64
2022-09-22T10:17:41.146Z,15.86
2022-09-22T10:22:45.562Z,16.54
2022-09-22T10:28:01.213Z,15.84
2022-09-22T10:33:14.540Z,15.43
2022-09-22T10:38:21.691Z,15.35
2022-09-22T10:43:38.278Z,15.86
2022-09-22T10:48:48.174Z,17.47
2022-09-22T10:54:10.247Z,17.83
2022-09-22T10:59:32.662Z,17.27
2022-09-22T11:04:53.118Z,17.32
2022-09-22T11:10:19.436Z,17.00
2022-09-22T11:16:06.647Z,17.62
2022-09-22T11:21:23.738Z,17.10
2022-09-22T11:26:46.297Z,18.02
2022-09-22T11:32:01.756Z,17.35
2022-09-22T11:37:27.731Z,17.85
2022-09-22T11:42:40.702Z,17.57
2022-09-22T11:48:04.050Z,17.85
2022-09-22T11:53:40.318Z,17.94
2022-09-22T11:58:46.288Z,17.81
2022-09-22T12:03:56.644Z,16.32
2022-09-22T12:09:04.064Z,15.91
2022-09-22T12:14:14.702Z,15.81
2022-09-22T12:19:30.241Z,16.72
2022-09-22T12:24:34.800Z,16.79
2022-09-22T12:29:39.583Z,17.13
2022-09-22T12:34:45.718Z,16.97
2022-09-22T12:39:50.842Z,16.13
2022-09-22T12:45:00.842Z,16.86
2022-09-22T12:50:08.286Z,17.09
2022-09-22T12:55:20.558Z,17.25
2022-09-22T13:00:32.872Z,17.38
2022-09-22T13:05:46.856Z,17.18
2022-09-22T13:11:02.363Z,17.42
2022-09-22T13:16:38.097Z,16.32
2022-09-22T13:21:42.528Z,16.50
2022-09-22T13:26:47.545Z,17.14
2022-09-22T13:31:56.049Z,17.25
2022-09-22T13:37:02.780Z,16.53
2022-09-22T13:42:09.728Z,16.61
2022-09-22T13:47:19.124Z,16.80
2022-09-22T13:52:27.035Z,16.98
2022-09-22T13:57:32.980Z,17.26
2022-09-22T14:02:45.402Z,16.81
2022-09-22T14:08:10.572Z,16.83
2022-09-22T14:13:40.558Z,16.84
2022-09-22T14:18:49.324Z,16.75
2022-09-22T14:23:53.389Z,16.64
2022-09-22T14:28:59.225Z,16.77
2022-09-22T14:34:07.231Z,17.00
2022-09-22T14:39:19.258Z,17.10
2022-09-22T14:44:27.409Z,16.87
2022-09-22T14:49:40.790Z,16.96
2022-09-22T14:54:45.677Z,16.94
2022-09-22T15:00:13.561Z,16.78
2022-09-22T15:05:29.713Z,16.86
2022-09-22T15:10:35.236Z,16.77
2022-09-22T15:15:46.670Z,16.40
2022-09-22T15:20:53.371Z,16.04
2022-09-22T15:25:57.532Z,16.36
2022-09-22T15:31:00.945Z,16.23
2022-09-22T15:36:13.882Z,16.35
2022-09-22T15:41:17.419Z,15.92
2022-09-22T15:46:31.625Z,15.79
2022-09-22T15:51:37.592Z,15.04
2022-09-22T15:56:41.946Z,14.70
2022-09-22T16:01:46.280Z,14.26
2022-09-22T16:06:55.338Z,13.81
2022-09-22T16:11:59.685Z,13.31
2022-09-22T16:17:03.171Z,12.94
2022-09-22T16:22:07.849Z,12.95
2022-09-22T16:27:12.203Z,12.57
2022-09-22T16:32:16.657Z,12.28
2022-09-22T16:37:21.979Z,12.01
2022-09-22T16:42:25.486Z,11.78
2022-09-22T16:47:29.659Z,11.63
2022-09-22T16:52:34.518Z,11.35
2022-09-22T16:57:38.084Z,11.20
2022-09-22T17:02:44.683Z,11.15
2022-09-22T17:07:54.116Z,10.93
2022-09-22T17:12:59.900Z,10.72
2022-09-22T17:18:05.452Z,10.53
2022-09-22T17:23:12.901Z,10.32
2022-09-22T17:28:17.871Z,10.12
2022-09-22T17:33:21.812Z,9.70
2022-09-22T17:43:56.481Z,9.64
2022-09-22T17:49:36.040Z,9.31
2022-09-22T17:54:59.733Z,9.15
2022-09-22T18:00:03.501Z,8.97
2022-09-22T18:05:11.105Z,8.73
2022-09-22T18:10:19.695Z,8.69
2022-09-22T18:15:24.378Z,8.62
2022-09-22T18:20:28.016Z,8.29
2022-09-22T18:25:34.282Z,8.31
2022-09-22T18:30:40.366Z,8.16
2022-09-22T18:35:46.223Z,8.03
2022-09-22T18:40:54.321Z,7.90
2022-09-22T18:45:59.628Z,7.91
2022-09-22T18:51:06.416Z,7.72
2022-09-22T18:56:19.528Z,7.64
2022-09-22T19:01:25.011Z,7.58
2022-09-22T19:06:52.325Z,7.52
2022-09-22T19:11:59.342Z,7.39
2022-09-22T19:17:05.804Z,7.29
2022-09-22T19:22:11.265Z,7.05
2022-09-22T19:27:19.312Z,7.01
2022-09-22T19:32:28.749Z,6.93
2022-09-22T19:37:33.199Z,6.75
2022-09-22T19:42:40.450Z,6.71
2022-09-22T19:47:45.052Z,6.69
2022-09-22T19:52:48.944Z,6.61
2022-09-22T19:57:57.353Z,6.46
2022-09-22T20:03:01.928Z,6.38
2022-09-22T20:08:08.071Z,6.31
2022-09-22T20:13:27.197Z,6.21
2022-09-22T20:18:40.580Z,6.13
2022-09-22T20:23:47.968Z,6.06
2022-09-22T20:28:54.336Z,5.97
2022-09-22T20:33:57.972Z,5.93
2022-09-22T20:39:02.082Z,5.94
2022-09-22T20:44:07.531Z,5.89
2022-09-22T20:49:13.951Z,5.81
2022-09-22T20:54:18.371Z,5.79
2022-09-22T20:59:23.430Z,5.70
2022-09-22T21:04:27.029Z,5.61
2022-09-22T21:09:48.100Z,5.57
2022-09-22T21:14:53.269Z,5.54
2022-09-22T21:19:57.960Z,5.48
2022-09-22T21:25:03.157Z,5.38
2022-09-22T21:30:09.506Z,5.39
2022-09-22T21:35:16.848Z,5.37
2022-09-22T21:40:20.666Z,5.26
2022-09-22T21:45:25.849Z,5.20
2022-09-22T21:50:29.303Z,5.06
2022-09-22T21:55:32.829Z,5.14
2022-09-22T22:00:51.798Z,4.99
2022-09-22T22:06:01.045Z,4.96
2022-09-22T22:11:07.178Z,4.89
2022-09-22T22:16:13.639Z,4.89
2022-09-22T22:21:19.350Z,4.88
2022-09-22T22:26:24.988Z,4.89
2022-09-22T22:31:29.806Z,4.83
2022-09-22T22:36:33.892Z,4.89
2022-09-22T22:41:38.002Z,4.66
2022-09-22T22:46:42.924Z,4.70
2022-09-22T22:51:49.873Z,4.68
2022-09-22T22:56:53.392Z,4.56
2022-09-22T23:01:58.201Z,4.53
2022-09-22T23:07:01.635Z,4.53
2022-09-22T23:12:05.819Z,4.55
2022-09-22T23:17:10.885Z,4.45
2022-09-22T23:22:14.314Z,4.36
2022-09-22T23:27:17.832Z,4.34
2022-09-22T23:32:23.686Z,4.29
2022-09-22T23:37:27.124Z,4.24
2022-09-22T23:42:30.534Z,4.13
2022-09-22T23:47:36.516Z,4.21
2022-09-22T23:52:39.968Z,4.16
2022-09-22T23:57:43.377Z,4.09
